sensor_id;sensor_type;location;lat;lon;timestamp;pressure;altitude;pressure_sealevel;temperature;humidity
78170;BME280;67412;49.892;14.490;2023-05-15T00:02:21;96706.91;;;9.55;94.96
78170;BME280;67412;49.892;14.490;2023-05-15T00:04:46;96705.22;;;9.53;95.20
78170;BME280;67412;49.892;14.490;2023-05-15T00:07:12;96704.34;;;9.55;95.01
78170;BME280;67412;49.892;14.490;2023-05-15T00:09:37;96696.66;;;9.55;94.97
78170;BME280;67412;49.892;14.490;2023-05-15T00:12:03;96695.81;;;9.53;95.06
78170;BME280;67412;49.892;14.490;2023-05-15T00:14:28;96693.38;;;9.47;95.66
78170;BME280;67412;49.892;14.490;2023-05-15T00:16:53;96686.34;;;9.57;94.69
78170;BME280;67412;49.892;14.490;2023-05-15T00:19:19;96693.19;;;9.56;94.56
78170;BME280;67412;49.892;14.490;2023-05-15T00:21:45;96686.63;;;9.43;95.19
78170;BME280;67412;49.892;14.490;2023-05-15T00:24:10;96689.19;;;9.43;95.41
78170;BME280;67412;49.892;14.490;2023-05-15T00:26:35;96680.66;;;9.41;95.24
78170;BME280;67412;49.892;14.490;2023-05-15T00:29:01;96680.72;;;9.38;95.04
78170;BME280;67412;49.892;14.490;2023-05-15T00:31:26;96668.84;;;9.34;95.19
78170;BME280;67412;49.892;14.490;2023-05-15T00:33:51;96668.78;;;9.39;95.30
78170;BME280;67412;49.892;14.490;2023-05-15T00:36:17;96668.91;;;9.31;95.33
78170;BME280;67412;49.892;14.490;2023-05-15T00:38:42;96668.91;;;9.31;95.05
78170;BME280;67412;49.892;14.490;2023-05-15T00:41:09;96674.97;;;9.29;95.08
78170;BME280;67412;49.892;14.490;2023-05-15T00:43:35;96657.88;;;9.28;94.98
78170;BME280;67412;49.892;14.490;2023-05-15T00:46:01;96664.78;;;9.24;95.23
78170;BME280;67412;49.892;14.490;2023-05-15T00:48:28;96655.41;;;9.23;95.31
78170;BME280;67412;49.892;14.490;2023-05-15T00:50:54;96654.69;;;9.16;95.25
78170;BME280;67412;49.892;14.490;2023-05-15T00:53:22;96652.94;;;9.18;95.18
78170;BME280;67412;49.892;14.490;2023-05-15T00:55:49;96644.47;;;9.15;95.07
78170;BME280;67412;49.892;14.490;2023-05-15T00:58:15;96649.53;;;9.18;95.02
78170;BME280;67412;49.892;14.490;2023-05-15T01:00:44;96647.69;;;9.25;94.71
78170;BME280;67412;49.892;14.490;2023-05-15T01:03:11;96647.00;;;9.15;94.57
78170;BME280;67412;49.892;14.490;2023-05-15T01:05:36;96648.78;;;9.13;94.90
78170;BME280;67412;49.892;14.490;2023-05-15T01:08:25;96648.00;;;9.08;95.04
78170;BME280;67412;49.892;14.490;2023-05-15T01:10:51;96648.91;;;9.07;95.42
78170;BME280;67412;49.892;14.490;2023-05-15T01:13:19;96646.38;;;9.05;95.42
78170;BME280;67412;49.892;14.490;2023-05-15T01:15:45;96647.16;;;9.09;95.45
78170;BME280;67412;49.892;14.490;2023-05-15T01:18:11;96648.84;;;9.10;95.43
78170;BME280;67412;49.892;14.490;2023-05-15T01:29:16;96644.66;;;9.06;95.88
78170;BME280;67412;49.892;14.490;2023-05-15T01:31:49;96639.59;;;9.03;96.13
78170;BME280;67412;49.892;14.490;2023-05-15T01:34:22;96640.44;;;9.03;96.13
78170;BME280;67412;49.892;14.490;2023-05-15T01:36:52;96632.78;;;9.00;96.12
78170;BME280;67412;49.892;14.490;2023-05-15T01:39:22;96631.91;;;9.03;96.07
78170;BME280;67412;49.892;14.490;2023-05-15T01:41:54;96632.69;;;9.05;95.62
78170;BME280;67412;49.892;14.490;2023-05-15T01:44:27;96625.00;;;9.06;95.66
78170;BME280;67412;49.892;14.490;2023-05-15T01:47:01;96627.50;;;9.08;95.71
78170;BME280;67412;49.892;14.490;2023-05-15T01:49:28;96632.69;;;9.06;95.67
78170;BME280;67412;49.892;14.490;2023-05-15T01:52:00;96635.28;;;9.05;95.59
78170;BME280;67412;49.892;14.490;2023-05-15T01:54:30;96627.66;;;9.02;95.83
78170;BME280;67412;49.892;14.490;2023-05-15T01:56:56;96631.84;;;9.04;95.74
78170;BME280;67412;49.892;14.490;2023-05-15T01:59:23;96628.50;;;9.01;95.54
78170;BME280;67412;49.892;14.490;2023-05-15T02:01:49;96634.53;;;8.98;95.93
78170;BME280;67412;49.892;14.490;2023-05-15T02:04:17;96624.25;;;9.00;95.63
78170;BME280;67412;49.892;14.490;2023-05-15T02:06:43;96618.25;;;9.01;95.46
78170;BME280;67412;49.892;14.490;2023-05-15T02:09:10;96618.25;;;9.01;95.91
78170;BME280;67412;49.892;14.490;2023-05-15T02:11:36;96608.03;;;9.01;95.06
78170;BME280;67412;49.892;14.490;2023-05-15T02:14:03;96618.34;;;8.98;95.27
78170;BME280;67412;49.892;14.490;2023-05-15T02:16:29;96621.03;;;8.90;95.41
78170;BME280;67412;49.892;14.490;2023-05-15T02:18:54;96614.97;;;8.96;95.49
78170;BME280;67412;49.892;14.490;2023-05-15T02:21:20;96607.22;;;8.99;95.26
78170;BME280;67412;49.892;14.490;2023-05-15T02:23:45;96608.06;;;8.99;95.45
78170;BME280;67412;49.892;14.490;2023-05-15T02:34:30;96587.72;;;8.92;95.50
78170;BME280;67412;49.892;14.490;2023-05-15T02:37:00;96583.59;;;8.85;96.22
78170;BME280;67412;49.892;14.490;2023-05-15T02:39:26;96579.28;;;8.87;95.79
78170;BME280;67412;49.892;14.490;2023-05-15T02:41:53;96576.66;;;8.90;95.96
78170;BME280;67412;49.892;14.490;2023-05-15T02:44:19;96577.56;;;8.86;96.11
78170;BME280;67412;49.892;14.490;2023-05-15T02:46:47;96571.53;;;8.90;96.06
78170;BME280;67412;49.892;14.490;2023-05-15T02:49:13;96571.59;;;8.87;95.80
78170;BME280;67412;49.892;14.490;2023-05-15T02:51:39;96571.56;;;8.88;95.50
78170;BME280;67412;49.892;14.490;2023-05-15T02:54:04;96569.81;;;8.90;95.73
78170;BME280;67412;49.892;14.490;2023-05-15T02:56:30;96566.31;;;8.94;95.11
78170;BME280;67412;49.892;14.490;2023-05-15T02:58:56;96560.47;;;8.88;94.67
78170;BME280;67412;49.892;14.490;2023-05-15T03:01:21;96558.00;;;8.83;95.45
78170;BME280;67412;49.892;14.490;2023-05-15T03:03:47;96568.22;;;8.85;95.45
78170;BME280;67412;49.892;14.490;2023-05-15T03:06:12;96568.25;;;8.83;95.29
78170;BME280;67412;49.892;14.490;2023-05-15T03:08:37;96564.97;;;8.77;95.83
78170;BME280;67412;49.892;14.490;2023-05-15T03:11:02;96567.41;;;8.81;96.07
78170;BME280;67412;49.892;14.490;2023-05-15T03:13:28;96559.78;;;8.78;95.89
78170;BME280;67412;49.892;14.490;2023-05-15T03:15:53;96558.84;;;8.84;95.95
78170;BME280;67412;49.892;14.490;2023-05-15T03:18:18;96563.97;;;8.84;96.21
78170;BME280;67412;49.892;14.490;2023-05-15T03:20:46;96559.69;;;8.84;96.08
78170;BME280;67412;49.892;14.490;2023-05-15T03:23:11;96559.59;;;8.89;96.24
78170;BME280;67412;49.892;14.490;2023-05-15T03:25:36;96554.63;;;8.81;95.83
78170;BME280;67412;49.892;14.490;2023-05-15T03:28:02;96558.00;;;8.83;96.08
78170;BME280;67412;49.892;14.490;2023-05-15T03:30:27;96552.03;;;8.83;96.03
78170;BME280;67412;49.892;14.490;2023-05-15T03:32:52;96552.78;;;8.88;95.66
78170;BME280;67412;49.892;14.490;2023-05-15T03:35:18;96542.47;;;8.92;95.61
78170;BME280;67412;49.892;14.490;2023-05-15T03:37:43;96544.91;;;8.97;95.58
78170;BME280;67412;49.892;14.490;2023-05-15T03:40:08;96546.59;;;8.98;95.46
78170;BME280;67412;49.892;14.490;2023-05-15T03:42:34;96542.47;;;8.92;96.08
78170;BME280;67412;49.892;14.490;2023-05-15T03:44:59;96538.16;;;8.93;95.71
78170;BME280;67412;49.892;14.490;2023-05-15T03:47:25;96535.66;;;8.90;95.65
78170;BME280;67412;49.892;14.490;2023-05-15T03:49:50;96543.47;;;8.84;95.91
78170;BME280;67412;49.892;14.490;2023-05-15T03:52:15;96537.44;;;8.88;95.89
78170;BME280;67412;49.892;14.490;2023-05-15T03:54:41;96537.50;;;8.85;95.91
78170;BME280;67412;49.892;14.490;2023-05-15T03:57:07;96529.69;;;8.89;95.38
78170;BME280;67412;49.892;14.490;2023-05-15T03:59:32;96525.41;;;8.90;95.38
78170;BME280;67412;49.892;14.490;2023-05-15T04:01:58;96534.78;;;8.92;95.60
78170;BME280;67412;49.892;14.490;2023-05-15T04:04:23;96531.47;;;8.86;95.64
78170;BME280;67412;49.892;14.490;2023-05-15T04:06:49;96529.75;;;8.88;95.86
78170;BME280;67412;49.892;14.490;2023-05-15T04:09:15;96524.63;;;8.88;95.54
78170;BME280;67412;49.892;14.490;2023-05-15T04:11:40;96519.66;;;8.79;96.23
78170;BME280;67412;49.892;14.490;2023-05-15T04:14:05;96516.25;;;8.80;96.32
78170;BME280;67412;49.892;14.490;2023-05-15T04:16:31;96520.38;;;8.85;96.15
78170;BME280;67412;49.892;14.490;2023-05-15T04:18:56;96521.22;;;8.86;96.20
78170;BME280;67412;49.892;14.490;2023-05-15T04:21:21;96517.81;;;8.85;95.77
78170;BME280;67412;49.892;14.490;2023-05-15T04:23:47;96515.34;;;8.82;95.50
78170;BME280;67412;49.892;14.490;2023-05-15T04:26:12;96511.06;;;8.83;95.89
78170;BME280;67412;49.892;14.490;2023-05-15T04:28:37;96506.59;;;8.92;95.53
78170;BME280;67412;49.892;14.490;2023-05-15T04:31:03;96509.31;;;8.85;95.69
78170;BME280;67412;49.892;14.490;2023-05-15T04:33:28;96517.66;;;8.93;95.36
78170;BME280;67412;49.892;14.490;2023-05-15T04:35:53;96513.44;;;8.92;95.64
78170;BME280;67412;49.892;14.490;2023-05-15T04:38:19;96507.41;;;8.94;95.55
78170;BME280;67412;49.892;14.490;2023-05-15T04:40:44;96510.13;;;8.87;95.59
78170;BME280;67412;49.892;14.490;2023-05-15T04:43:10;96509.38;;;8.82;95.74
78170;BME280;67412;49.892;14.490;2023-05-15T04:45:35;96505.78;;;8.90;95.90
78170;BME280;67412;49.892;14.490;2023-05-15T04:48:01;96503.16;;;8.93;95.32
78170;BME280;67412;49.892;14.490;2023-05-15T04:50:26;96507.44;;;8.93;95.77
78170;BME280;67412;49.892;14.490;2023-05-15T04:52:52;96501.41;;;8.95;95.74
78170;BME280;67412;49.892;14.490;2023-05-15T04:55:18;96494.66;;;8.91;95.51
78170;BME280;67412;49.892;14.490;2023-05-15T04:57:45;96502.38;;;8.90;95.92
78170;BME280;67412;49.892;14.490;2023-05-15T05:00:11;96508.34;;;8.90;95.60
78170;BME280;67412;49.892;14.490;2023-05-15T05:02:38;96493.97;;;8.83;96.28
78170;BME280;67412;49.892;14.490;2023-05-15T05:05:04;96496.44;;;8.88;96.24
78170;BME280;67412;49.892;14.490;2023-05-15T05:07:31;96498.88;;;8.94;96.11
78170;BME280;67412;49.892;14.490;2023-05-15T05:09:56;96498.72;;;9.01;95.97
78170;BME280;67412;49.892;14.490;2023-05-15T05:12:22;96498.63;;;9.04;95.62
78170;BME280;67412;49.892;14.490;2023-05-15T05:14:47;96490.97;;;9.04;95.47
78170;BME280;67412;49.892;14.490;2023-05-15T05:17:13;96494.38;;;9.05;95.49
78170;BME280;67412;49.892;14.490;2023-05-15T05:19:38;96503.91;;;8.98;95.95
78170;BME280;67412;49.892;14.490;2023-05-15T05:22:04;96493.69;;;8.97;96.19
78170;BME280;67412;49.892;14.490;2023-05-15T05:24:30;96491.16;;;8.95;96.19
78170;BME280;67412;49.892;14.490;2023-05-15T05:26:56;96489.66;;;8.85;96.53
78170;BME280;67412;49.892;14.490;2023-05-15T05:29:22;96484.34;;;8.96;96.38
78170;BME280;67412;49.892;14.490;2023-05-15T05:31:48;96481.81;;;8.93;96.30
78170;BME280;67412;49.892;14.490;2023-05-15T05:34:13;96478.31;;;8.97;96.21
78170;BME280;67412;49.892;14.490;2023-05-15T05:36:38;96482.63;;;8.95;96.32
78170;BME280;67412;49.892;14.490;2023-05-15T05:39:04;96480.88;;;8.97;96.13
78170;BME280;67412;49.892;14.490;2023-05-15T05:41:29;96481.84;;;8.91;96.64
78170;BME280;67412;49.892;14.490;2023-05-15T05:43:55;96482.72;;;8.90;96.50
78170;BME280;67412;49.892;14.490;2023-05-15T05:46:20;96483.56;;;8.92;96.49
78170;BME280;67412;49.892;14.490;2023-05-15T05:48:45;96480.06;;;8.95;96.44
78170;BME280;67412;49.892;14.490;2023-05-15T05:51:11;96482.59;;;8.96;96.29
78170;BME280;67412;49.892;14.490;2023-05-15T05:53:36;96480.00;;;8.98;96.49
78170;BME280;67412;49.892;14.490;2023-05-15T05:56:01;96479.22;;;8.96;96.35
78170;BME280;67412;49.892;14.490;2023-05-15T05:58:27;96477.44;;;8.99;96.25
78170;BME280;67412;49.892;14.490;2023-05-15T06:00:52;96474.72;;;9.05;95.99
78170;BME280;67412;49.892;14.490;2023-05-15T06:03:18;96475.63;;;9.03;96.17
78170;BME280;67412;49.892;14.490;2023-05-15T06:05:43;96477.03;;;9.17;95.83
78170;BME280;67412;49.892;14.490;2023-05-15T06:08:08;96474.72;;;9.05;95.86
78170;BME280;67412;49.892;14.490;2023-05-15T06:10:34;96476.44;;;9.05;95.59
78170;BME280;67412;49.892;14.490;2023-05-15T06:12:59;96474.66;;;9.08;95.57
78170;BME280;67412;49.892;14.490;2023-05-15T06:15:25;96471.38;;;9.02;95.92
78170;BME280;67412;49.892;14.490;2023-05-15T06:17:51;96467.81;;;9.09;96.12
78170;BME280;67412;49.892;14.490;2023-05-15T06:20:16;96467.66;;;9.15;95.66
78170;BME280;67412;49.892;14.490;2023-05-15T06:22:42;96474.34;;;9.22;95.68
78170;BME280;67412;49.892;14.490;2023-05-15T06:25:08;96470.03;;;9.24;95.46
78170;BME280;67412;49.892;14.490;2023-05-15T06:27:38;96470.97;;;9.20;95.74
78170;BME280;67412;49.892;14.490;2023-05-15T06:30:04;96471.00;;;9.18;95.41
78170;BME280;67412;49.892;14.490;2023-05-15T06:32:30;96465.06;;;9.16;95.60
78170;BME280;67412;49.892;14.490;2023-05-15T06:34:57;96474.28;;;9.25;95.56
78170;BME280;67412;49.892;14.490;2023-05-15T06:37:22;96473.47;;;9.23;95.63
78170;BME280;67412;49.892;14.490;2023-05-15T06:39:48;96465.81;;;9.21;95.69
78170;BME280;67412;49.892;14.490;2023-05-15T06:42:13;96460.56;;;9.26;95.27
78170;BME280;67412;49.892;14.490;2023-05-15T06:44:39;96463.81;;;9.34;95.47
78170;BME280;67412;49.892;14.490;2023-05-15T06:47:04;96463.03;;;9.31;95.49
78170;BME280;67412;49.892;14.490;2023-05-15T06:49:31;96463.75;;;9.37;95.44
78170;BME280;67412;49.892;14.490;2023-05-15T06:51:56;96471.63;;;9.30;95.77
78170;BME280;67412;49.892;14.490;2023-05-15T06:54:22;96463.81;;;9.34;96.00
78170;BME280;67412;49.892;14.490;2023-05-15T06:56:47;96461.28;;;9.33;94.87
78170;BME280;67412;49.892;14.490;2023-05-15T06:59:12;96460.97;;;9.45;94.81
78170;BME280;67412;49.892;14.490;2023-05-15T07:01:38;96456.94;;;9.36;95.25
78170;BME280;67412;49.892;14.490;2023-05-15T07:04:03;96461.19;;;9.37;95.61
78170;BME280;67412;49.892;14.490;2023-05-15T07:06:29;96468.66;;;9.46;95.69
78170;BME280;67412;49.892;14.490;2023-05-15T07:08:58;96462.50;;;9.53;95.65
78170;BME280;67412;49.892;14.490;2023-05-15T07:11:24;96459.25;;;9.47;95.51
78170;BME280;67412;49.892;14.490;2023-05-15T07:13:51;96463.25;;;9.58;95.50
78170;BME280;67412;49.892;14.490;2023-05-15T07:16:16;96457.94;;;9.64;94.75
78170;BME280;67412;49.892;14.490;2023-05-15T07:18:41;96456.50;;;9.54;95.57
78170;BME280;67412;49.892;14.490;2023-05-15T07:21:07;96454.50;;;9.67;94.93
78170;BME280;67412;49.892;14.490;2023-05-15T07:23:32;96456.22;;;9.66;94.64
78170;BME280;67412;49.892;14.490;2023-05-15T07:25:57;96457.06;;;9.67;94.37
78170;BME280;67412;49.892;14.490;2023-05-15T07:28:23;96455.50;;;9.60;94.62
78170;BME280;67412;49.892;14.490;2023-05-15T07:30:48;96464.88;;;9.61;95.01
78170;BME280;67412;49.892;14.490;2023-05-15T07:33:13;96464.94;;;9.59;94.94
78170;BME280;67412;49.892;14.490;2023-05-15T07:35:38;96457.09;;;9.64;94.91
78170;BME280;67412;49.892;14.490;2023-05-15T07:38:04;96469.75;;;9.71;94.44
78170;BME280;67412;49.892;14.490;2023-05-15T07:40:29;96466.41;;;9.68;95.33
78170;BME280;67412;49.892;14.490;2023-05-15T07:42:55;96465.44;;;9.74;94.94
78170;BME280;67412;49.892;14.490;2023-05-15T07:45:21;96459.91;;;9.89;94.49
78170;BME280;67412;49.892;14.490;2023-05-15T07:47:47;96453.88;;;9.90;94.63
78170;BME280;67412;49.892;14.490;2023-05-15T07:50:13;96460.31;;;10.06;94.12
78170;BME280;67412;49.892;14.490;2023-05-15T07:52:39;96459.38;;;10.10;93.22
78170;BME280;67412;49.892;14.490;2023-05-15T07:55:05;96456.88;;;10.07;94.03
78170;BME280;67412;49.892;14.490;2023-05-15T07:57:31;96458.34;;;10.17;93.63
78170;BME280;67412;49.892;14.490;2023-05-15T07:59:56;96452.91;;;10.29;93.44
78170;BME280;67412;49.892;14.490;2023-05-15T08:02:22;96450.44;;;10.25;92.73
78170;BME280;67412;49.892;14.490;2023-05-15T08:04:47;96450.13;;;10.37;92.29
78170;BME280;67412;49.892;14.490;2023-05-15T08:07:13;96449.38;;;10.33;92.22
78170;BME280;67412;49.892;14.490;2023-05-15T08:09:38;96454.22;;;10.42;91.98
78170;BME280;67412;49.892;14.490;2023-05-15T08:12:18;96448.84;;;10.51;92.82
78170;BME280;67412;49.892;14.490;2023-05-15T08:14:54;96443.91;;;10.45;92.65
78170;BME280;67412;49.892;14.490;2023-05-15T08:17:20;96449.47;;;10.59;92.93
78170;BME280;67412;49.892;14.490;2023-05-15T08:19:46;96452.94;;;10.58;93.32
78170;BME280;67412;49.892;14.490;2023-05-15T08:22:12;96462.41;;;10.56;92.95
78170;BME280;67412;49.892;14.490;2023-05-15T08:24:38;96458.25;;;10.82;91.86
78170;BME280;67412;49.892;14.490;2023-05-15T08:27:04;96461.63;;;10.84;91.21
78170;BME280;67412;49.892;14.490;2023-05-15T08:29:30;96454.81;;;10.83;92.30
78170;BME280;67412;49.892;14.490;2023-05-15T08:31:56;96454.53;;;10.92;90.65
78170;BME280;67412;49.892;14.490;2023-05-15T08:34:22;96459.78;;;10.87;90.75
78170;BME280;67412;49.892;14.490;2023-05-15T08:36:47;96460.72;;;10.85;91.76
78170;BME280;67412;49.892;14.490;2023-05-15T08:39:12;96454.88;;;11.09;91.19
78170;BME280;67412;49.892;14.490;2023-05-15T08:41:55;96459.97;;;11.38;90.42
78170;BME280;67412;49.892;14.490;2023-05-15T08:44:22;96464.63;;;11.26;88.80
78170;BME280;67412;49.892;14.490;2023-05-15T08:46:48;96471.28;;;11.33;88.92
78170;BME280;67412;49.892;14.490;2023-05-15T08:49:32;96471.66;;;11.48;88.65
78170;BME280;67412;49.892;14.490;2023-05-15T08:52:00;96475.72;;;11.55;88.33
78170;BME280;67412;49.892;14.490;2023-05-15T08:54:25;96477.16;;;11.64;88.28
78170;BME280;67412;49.892;14.490;2023-05-15T08:56:51;96474.84;;;11.55;87.92
78170;BME280;67412;49.892;14.490;2023-05-15T08:59:17;96481.81;;;11.53;88.27
78170;BME280;67412;49.892;14.490;2023-05-15T09:01:42;96485.28;;;11.24;88.28
78170;BME280;67412;49.892;14.490;2023-05-15T09:04:08;96477.41;;;11.29;88.29
78170;BME280;67412;49.892;14.490;2023-05-15T09:06:34;96481.53;;;11.34;88.62
78170;BME280;67412;49.892;14.490;2023-05-15T09:09:00;96484.63;;;11.44;87.84
78170;BME280;67412;49.892;14.490;2023-05-15T09:11:27;96480.44;;;11.41;87.18
78170;BME280;67412;49.892;14.490;2023-05-15T09:13:57;96489.97;;;11.66;88.12
78170;BME280;67412;49.892;14.490;2023-05-15T09:16:22;96482.81;;;11.47;86.65
78170;BME280;67412;49.892;14.490;2023-05-15T09:18:48;96489.91;;;11.67;86.90
78170;BME280;67412;49.892;14.490;2023-05-15T09:21:28;96483.88;;;11.96;86.85
78170;BME280;67412;49.892;14.490;2023-05-15T09:23:56;96486.63;;;11.90;84.65
78170;BME280;67412;49.892;14.490;2023-05-15T09:26:39;96483.88;;;11.96;84.51
78170;BME280;67412;49.892;14.490;2023-05-15T09:29:05;96487.41;;;12.18;84.76
78170;BME280;67412;49.892;14.490;2023-05-15T09:31:30;96489.19;;;12.16;83.82
78170;BME280;67412;49.892;14.490;2023-05-15T09:33:59;96496.03;;;12.17;85.04
78170;BME280;67412;49.892;14.490;2023-05-15T09:36:33;96500.69;;;12.06;86.11
78170;BME280;67412;49.892;14.490;2023-05-15T09:39:00;96499.59;;;12.13;86.10
78170;BME280;67412;49.892;14.490;2023-05-15T09:41:26;96508.41;;;12.06;85.83
78170;BME280;67412;49.892;14.490;2023-05-15T09:43:52;96506.91;;;12.25;85.92
78170;BME280;67412;49.892;14.490;2023-05-15T09:46:20;96514.06;;;11.91;84.79
78170;BME280;67412;49.892;14.490;2023-05-15T09:48:46;96514.34;;;11.82;86.68
78170;BME280;67412;49.892;14.490;2023-05-15T09:51:15;96509.34;;;11.77;86.60
78170;BME280;67412;49.892;14.490;2023-05-15T09:53:42;96513.81;;;11.71;86.47
78170;BME280;67412;49.892;14.490;2023-05-15T09:56:11;96520.44;;;11.79;87.19
78170;BME280;67412;49.892;14.490;2023-05-15T09:58:36;96523.50;;;11.62;86.78
78170;BME280;67412;49.892;14.490;2023-05-15T10:01:02;96520.78;;;11.67;86.00
78170;BME280;67412;49.892;14.490;2023-05-15T10:03:28;96524.88;;;11.74;86.42
78170;BME280;67412;49.892;14.490;2023-05-15T10:05:59;96520.75;;;11.69;85.76
78170;BME280;67412;49.892;14.490;2023-05-15T10:08:26;96524.59;;;11.83;87.29
78170;BME280;67412;49.892;14.490;2023-05-15T10:10:52;96525.25;;;11.90;86.34
78170;BME280;67412;49.892;14.490;2023-05-15T10:13:18;96521.94;;;11.86;85.10
78170;BME280;67412;49.892;14.490;2023-05-15T10:15:44;96523.22;;;11.73;85.49
78170;BME280;67412;49.892;14.490;2023-05-15T10:18:14;96526.34;;;11.83;87.11
78170;BME280;67412;49.892;14.490;2023-05-15T10:20:42;96534.00;;;11.56;86.19
78170;BME280;67412;49.892;14.490;2023-05-15T10:23:09;96530.63;;;11.54;87.42
78170;BME280;67412;49.892;14.490;2023-05-15T10:28:09;96523.97;;;11.77;87.33
78170;BME280;67412;49.892;14.490;2023-05-15T10:30:34;96520.53;;;11.76;85.84
78170;BME280;67412;49.892;14.490;2023-05-15T10:33:01;96520.66;;;11.99;86.29
78170;BME280;67412;49.892;14.490;2023-05-15T10:35:29;96518.44;;;12.40;84.17
78170;BME280;67412;49.892;14.490;2023-05-15T10:37:55;96512.47;;;12.63;83.50
78170;BME280;67412;49.892;14.490;2023-05-15T10:40:22;96516.59;;;12.91;85.22
78170;BME280;67412;49.892;14.490;2023-05-15T10:42:47;96509.19;;;13.05;82.89
78170;BME280;67412;49.892;14.490;2023-05-15T10:45:13;96506.91;;;13.21;81.23
78170;BME280;67412;49.892;14.490;2023-05-15T10:47:40;96507.22;;;13.35;81.17
78170;BME280;67412;49.892;14.490;2023-05-15T10:50:06;96499.69;;;13.52;78.70
78170;BME280;67412;49.892;14.490;2023-05-15T10:52:32;96498.25;;;12.99;79.58
78170;BME280;67412;49.892;14.490;2023-05-15T10:55:00;96502.91;;;13.57;79.89
78170;BME280;67412;49.892;14.490;2023-05-15T10:57:27;96502.09;;;13.57;78.29
78170;BME280;67412;49.892;14.490;2023-05-15T10:59:53;96508.50;;;13.47;80.04
78170;BME280;67412;49.892;14.490;2023-05-15T11:02:23;96503.47;;;13.66;79.08
78170;BME280;67412;49.892;14.490;2023-05-15T11:04:54;96505.63;;;14.18;76.08
78170;BME280;67412;49.892;14.490;2023-05-15T11:07:20;96496.31;;;13.94;72.41
78170;BME280;67412;49.892;14.490;2023-05-15T11:09:45;96502.31;;;13.94;73.60
78170;BME280;67412;49.892;14.490;2023-05-15T11:12:11;96493.59;;;13.97;70.46
78170;BME280;67412;49.892;14.490;2023-05-15T11:17:04;96491.38;;;14.30;75.88
78170;BME280;67412;49.892;14.490;2023-05-15T11:19:39;96490.09;;;14.40;74.74
78170;BME280;67412;49.892;14.490;2023-05-15T11:22:32;96489.91;;;14.44;73.46
78170;BME280;67412;49.892;14.490;2023-05-15T11:25:07;96483.22;;;14.79;74.21
78170;BME280;67412;49.892;14.490;2023-05-15T11:27:39;96481.91;;;14.29;72.19
78170;BME280;67412;49.892;14.490;2023-05-15T11:32:47;96479.94;;;14.76;70.67
78170;BME280;67412;49.892;14.490;2023-05-15T11:35:22;96470.53;;;14.55;71.34
78170;BME280;67412;49.892;14.490;2023-05-15T11:37:49;96472.69;;;15.21;72.77
78170;BME280;67412;49.892;14.490;2023-05-15T11:40:18;96477.75;;;15.60;67.77
78170;BME280;67412;49.892;14.490;2023-05-15T11:43:05;96473.75;;;15.72;70.03
78170;BME280;67412;49.892;14.490;2023-05-15T11:45:34;96474.06;;;15.83;67.32
78170;BME280;67412;49.892;14.490;2023-05-15T11:48:01;96477.06;;;15.57;68.60
78170;BME280;67412;49.892;14.490;2023-05-15T11:50:29;96469.50;;;15.33;70.06
78170;BME280;67412;49.892;14.490;2023-05-15T11:52:56;96474.97;;;15.65;71.62
78170;BME280;67412;49.892;14.490;2023-05-15T11:55:22;96476.44;;;15.70;68.44
78170;BME280;67412;49.892;14.490;2023-05-15T11:57:48;96468.34;;;15.40;66.04
78170;BME280;67412;49.892;14.490;2023-05-15T12:00:13;96465.06;;;15.56;68.00
78170;BME280;67412;49.892;14.490;2023-05-15T12:02:40;96459.91;;;15.90;66.72
78170;BME280;67412;49.892;14.490;2023-05-15T12:05:06;96457.19;;;16.10;65.72
78170;BME280;67412;49.892;14.490;2023-05-15T12:07:40;96446.22;;;16.57;65.64
78170;BME280;67412;49.892;14.490;2023-05-15T12:10:05;96452.38;;;16.37;66.01
78170;BME280;67412;49.892;14.490;2023-05-15T12:12:34;96449.56;;;16.07;66.14
78170;BME280;67412;49.892;14.490;2023-05-15T12:15:01;96443.63;;;16.22;66.13
78170;BME280;67412;49.892;14.490;2023-05-15T12:17:26;96450.94;;;15.97;66.76
78170;BME280;67412;49.892;14.490;2023-05-15T12:19:52;96446.91;;;16.26;67.99
78170;BME280;67412;49.892;14.490;2023-05-15T12:22:19;96454.09;;;16.54;64.20
78170;BME280;67412;49.892;14.490;2023-05-15T12:24:46;96447.25;;;16.35;63.71
78170;BME280;67412;49.892;14.490;2023-05-15T12:27:12;96444.75;;;16.34;64.58
78170;BME280;67412;49.892;14.490;2023-05-15T12:29:39;96445.91;;;16.46;60.37
78170;BME280;67412;49.892;14.490;2023-05-15T12:32:05;96443.00;;;16.84;61.51
78170;BME280;67412;49.892;14.490;2023-05-15T12:34:31;96441.06;;;16.55;61.43
78170;BME280;67412;49.892;14.490;2023-05-15T12:36:57;96437.56;;;16.89;60.79
78170;BME280;67412;49.892;14.490;2023-05-15T12:39:24;96437.44;;;16.25;62.89
78170;BME280;67412;49.892;14.490;2023-05-15T12:41:50;96432.66;;;16.00;64.83
78170;BME280;67412;49.892;14.490;2023-05-15T12:44:18;96432.75;;;16.16;64.36
78170;BME280;67412;49.892;14.490;2023-05-15T12:46:45;96434.13;;;16.56;64.21
78170;BME280;67412;49.892;14.490;2023-05-15T12:49:10;96420.53;;;17.16;63.57
78170;BME280;67412;49.892;14.490;2023-05-15T12:51:41;96427.97;;;17.22;61.26
78170;BME280;67412;49.892;14.490;2023-05-15T12:54:16;96428.44;;;17.45;62.95
78170;BME280;67412;49.892;14.490;2023-05-15T12:56:41;96421.09;;;17.98;61.86
78170;BME280;67412;49.892;14.490;2023-05-15T12:59:07;96426.75;;;17.75;60.40
78170;BME280;67412;49.892;14.490;2023-05-15T13:01:32;96428.88;;;17.68;61.30
78170;BME280;67412;49.892;14.490;2023-05-15T13:03:59;96431.06;;;17.29;59.39
78170;BME280;67412;49.892;14.490;2023-05-15T13:06:25;96431.69;;;16.53;56.22
78170;BME280;67412;49.892;14.490;2023-05-15T13:08:53;96430.06;;;16.17;59.15
78170;BME280;67412;49.892;14.490;2023-05-15T13:11:18;96434.13;;;16.38;59.48
78170;BME280;67412;49.892;14.490;2023-05-15T13:13:48;96430.59;;;16.74;61.03
78170;BME280;67412;49.892;14.490;2023-05-15T13:16:21;96416.97;;;17.17;57.72
78170;BME280;67412;49.892;14.490;2023-05-15T13:18:47;96416.44;;;17.73;56.89